sensor_id;sensor_type;location;lat;lon;timestamp;pressure;altitude;pressure_sealevel;temperature;humidity
3812;BME280;1921;49.368;11.068;2023-04-19T00:00:41;98325.72;;;8.89;89.11
3812;BME280;1921;49.368;11.068;2023-04-19T00:03:10;98298.50;;;8.66;89.52
3812;BME280;1921;49.368;11.068;2023-04-19T00:05:36;98328.22;;;8.81;89.12
3812;BME280;1921;49.368;11.068;2023-04-19T00:08:06;98294.25;;;8.47;90.38
3812;BME280;1921;49.368;11.068;2023-04-19T00:10:32;98338.47;;;8.65;91.34
3812;BME280;1921;49.368;11.068;2023-04-19T00:13:00;98320.19;;;8.74;90.54
3812;BME280;1921;49.368;11.068;2023-04-19T00:15:26;98308.91;;;8.66;90.08
3812;BME280;1921;49.368;11.068;2023-04-19T00:17:52;98256.19;;;8.28;90.77
3812;BME280;1921;49.368;11.068;2023-04-19T00:20:19;98323.00;;;8.63;90.92
3812;BME280;1921;49.368;11.068;2023-04-19T00:22:45;98263.88;;;8.20;91.56
3812;BME280;1921;49.368;11.068;2023-04-19T00:25:11;98281.53;;;8.44;91.23
3812;BME280;1921;49.368;11.068;2023-04-19T00:27:37;98331.63;;;8.81;90.33
3812;BME280;1921;49.368;11.068;2023-04-19T00:30:03;98254.63;;;8.35;90.37
3812;BME280;1921;49.368;11.068;2023-04-19T00:32:28;98326.31;;;8.83;90.06
3812;BME280;1921;49.368;11.068;2023-04-19T00:34:54;98291.00;;;8.80;89.01
3812;BME280;1921;49.368;11.068;2023-04-19T00:37:20;98265.97;;;8.61;88.88
3812;BME280;1921;49.368;11.068;2023-04-19T00:39:45;98267.53;;;8.72;88.13
3812;BME280;1921;49.368;11.068;2023-04-19T00:42:11;98275.13;;;8.83;87.66
3812;BME280;1921;49.368;11.068;2023-04-19T00:44:37;98248.06;;;8.76;86.60
3812;BME280;1921;49.368;11.068;2023-04-19T00:47:03;98233.91;;;8.53;87.21
3812;BME280;1921;49.368;11.068;2023-04-19T00:49:30;98257.41;;;8.69;87.18
3812;BME280;1921;49.368;11.068;2023-04-19T00:51:56;98295.91;;;8.83;88.25
3812;BME280;1921;49.368;11.068;2023-04-19T00:54:22;98189.78;;;7.98;90.59
3812;BME280;1921;49.368;11.068;2023-04-19T00:56:48;98257.00;;;8.28;90.70
3812;BME280;1921;49.368;11.068;2023-04-19T00:59:15;98252.19;;;8.33;91.24
3812;BME280;1921;49.368;11.068;2023-04-19T01:01:41;98273.53;;;8.55;90.31
3812;BME280;1921;49.368;11.068;2023-04-19T01:04:07;98268.66;;;8.52;90.26
3812;BME280;1921;49.368;11.068;2023-04-19T01:06:35;98270.72;;;8.48;90.72
3812;BME280;1921;49.368;11.068;2023-04-19T01:09:01;98306.59;;;8.62;91.36
3812;BME280;1921;49.368;11.068;2023-04-19T01:11:27;98267.06;;;8.41;91.96
3812;BME280;1921;49.368;11.068;2023-04-19T01:13:55;98288.31;;;8.54;91.95
3812;BME280;1921;49.368;11.068;2023-04-19T01:16:21;98265.00;;;8.45;91.30
3812;BME280;1921;49.368;11.068;2023-04-19T01:18:47;98250.75;;;8.49;90.54
3812;BME280;1921;49.368;11.068;2023-04-19T01:21:13;98295.75;;;8.67;91.41
3812;BME280;1921;49.368;11.068;2023-04-19T01:23:39;98237.38;;;8.61;90.23
3812;BME280;1921;49.368;11.068;2023-04-19T01:26:05;98255.19;;;8.92;89.80
3812;BME280;1921;49.368;11.068;2023-04-19T01:28:31;98290.78;;;9.35;88.57
3812;BME280;1921;49.368;11.068;2023-04-19T01:30:57;98282.06;;;9.44;87.58
3812;BME280;1921;49.368;11.068;2023-04-19T01:33:23;98247.97;;;9.30;87.16
3812;BME280;1921;49.368;11.068;2023-04-19T01:35:49;98295.44;;;9.76;86.09
3812;BME280;1921;49.368;11.068;2023-04-19T01:38:16;98238.78;;;9.17;86.22
3812;BME280;1921;49.368;11.068;2023-04-19T01:40:42;98270.00;;;9.43;85.63
3812;BME280;1921;49.368;11.068;2023-04-19T01:43:11;98225.94;;;9.16;85.82
3812;BME280;1921;49.368;11.068;2023-04-19T01:45:37;98276.59;;;9.56;85.60
3812;BME280;1921;49.368;11.068;2023-04-19T01:48:03;98227.81;;;9.32;84.92
3812;BME280;1921;49.368;11.068;2023-04-19T01:50:30;98223.22;;;9.26;85.17
3812;BME280;1921;49.368;11.068;2023-04-19T01:52:57;98274.59;;;9.76;84.35
3812;BME280;1921;49.368;11.068;2023-04-19T01:55:23;98270.28;;;9.58;84.91
3812;BME280;1921;49.368;11.068;2023-04-19T01:57:49;98234.47;;;9.26;85.09
3812;BME280;1921;49.368;11.068;2023-04-19T02:00:14;98281.34;;;9.34;85.78
3812;BME280;1921;49.368;11.068;2023-04-19T02:02:42;98224.31;;;8.71;88.00
3812;BME280;1921;49.368;11.068;2023-04-19T02:05:09;98213.69;;;8.47;89.88
3812;BME280;1921;49.368;11.068;2023-04-19T02:07:34;98258.16;;;8.79;89.55
3812;BME280;1921;49.368;11.068;2023-04-19T02:10:00;98236.34;;;8.54;90.27
3812;BME280;1921;49.368;11.068;2023-04-19T02:12:27;98203.91;;;8.13;91.60
3812;BME280;1921;49.368;11.068;2023-04-19T02:14:56;98196.66;;;8.34;89.51
3812;BME280;1921;49.368;11.068;2023-04-19T02:17:25;98215.72;;;8.25;91.23
3812;BME280;1921;49.368;11.068;2023-04-19T02:19:51;98248.66;;;8.52;90.96
3812;BME280;1921;49.368;11.068;2023-04-19T02:22:18;98246.56;;;8.56;90.63
3812;BME280;1921;49.368;11.068;2023-04-19T02:24:44;98226.16;;;8.43;90.86
3812;BME280;1921;49.368;11.068;2023-04-19T02:27:10;98254.38;;;8.74;90.90
3812;BME280;1921;49.368;11.068;2023-04-19T02:29:37;98173.19;;;8.26;90.70
3812;BME280;1921;49.368;11.068;2023-04-19T02:32:03;98254.16;;;8.67;91.06
3812;BME280;1921;49.368;11.068;2023-04-19T02:34:32;98235.88;;;8.41;91.95
3812;BME280;1921;49.368;11.068;2023-04-19T02:36:59;98176.88;;;8.06;92.43
3812;BME280;1921;49.368;11.068;2023-04-19T02:39:25;98218.81;;;8.39;90.97
3812;BME280;1921;49.368;11.068;2023-04-19T02:41:51;98222.09;;;8.41;92.20
3812;BME280;1921;49.368;11.068;2023-04-19T02:44:16;98244.41;;;8.69;90.80
3812;BME280;1921;49.368;11.068;2023-04-19T02:46:49;98187.31;;;8.42;90.95
3812;BME280;1921;49.368;11.068;2023-04-19T02:49:16;98221.16;;;8.68;90.51
3812;BME280;1921;49.368;11.068;2023-04-19T02:51:42;98215.31;;;8.66;90.58
3812;BME280;1921;49.368;11.068;2023-04-19T02:54:07;98216.41;;;8.63;90.29
3812;BME280;1921;49.368;11.068;2023-04-19T02:56:33;98219.81;;;8.81;89.77
3812;BME280;1921;49.368;11.068;2023-04-19T02:59:03;98203.91;;;8.84;89.06
3812;BME280;1921;49.368;11.068;2023-04-19T03:01:29;98231.78;;;8.92;89.69
3812;BME280;1921;49.368;11.068;2023-04-19T03:03:55;98167.88;;;8.46;89.09
3812;BME280;1921;49.368;11.068;2023-04-19T03:06:21;98177.50;;;8.71;89.09
3812;BME280;1921;49.368;11.068;2023-04-19T03:08:46;98159.75;;;8.67;88.53
3812;BME280;1921;49.368;11.068;2023-04-19T03:11:14;98165.34;;;8.80;87.97
3812;BME280;1921;49.368;11.068;2023-04-19T03:13:40;98145.78;;;8.50;89.31
3812;BME280;1921;49.368;11.068;2023-04-19T03:16:07;98149.28;;;8.23;90.40
3812;BME280;1921;49.368;11.068;2023-04-19T03:18:33;98174.53;;;8.30;91.32
3812;BME280;1921;49.368;11.068;2023-04-19T03:20:59;98184.78;;;8.14;93.58
3812;BME280;1921;49.368;11.068;2023-04-19T03:23:26;98173.41;;;8.15;92.92
3812;BME280;1921;49.368;11.068;2023-04-19T03:25:52;98144.81;;;7.79;94.48
3812;BME280;1921;49.368;11.068;2023-04-19T03:28:17;98188.09;;;8.24;93.43
3812;BME280;1921;49.368;11.068;2023-04-19T03:30:43;98118.97;;;7.60;94.90
3812;BME280;1921;49.368;11.068;2023-04-19T03:33:09;98134.59;;;7.50;96.95
3812;BME280;1921;49.368;11.068;2023-04-19T03:35:35;98178.16;;;7.74;98.22
3812;BME280;1921;49.368;11.068;2023-04-19T03:38:00;98120.66;;;7.24;98.99
3812;BME280;1921;49.368;11.068;2023-04-19T03:40:26;98128.81;;;7.56;97.58
3812;BME280;1921;49.368;11.068;2023-04-19T03:42:52;98127.53;;;7.70;96.28
3812;BME280;1921;49.368;11.068;2023-04-19T03:45:18;98052.63;;;7.30;96.28
3812;BME280;1921;49.368;11.068;2023-04-19T03:47:43;98172.28;;;8.00;97.06
3812;BME280;1921;49.368;11.068;2023-04-19T03:50:10;98159.81;;;8.03;95.90
3812;BME280;1921;49.368;11.068;2023-04-19T03:52:36;98155.56;;;7.85;97.12
3812;BME280;1921;49.368;11.068;2023-04-19T03:55:02;98135.47;;;7.87;96.82
3812;BME280;1921;49.368;11.068;2023-04-19T03:57:27;98137.47;;;7.93;96.28
3812;BME280;1921;49.368;11.068;2023-04-19T03:59:53;98164.50;;;8.18;96.21
3812;BME280;1921;49.368;11.068;2023-04-19T04:02:19;98161.69;;;8.11;96.39
3812;BME280;1921;49.368;11.068;2023-04-19T04:04:44;98134.19;;;7.73;97.79
3812;BME280;1921;49.368;11.068;2023-04-19T04:07:10;98092.94;;;7.52;97.17
3812;BME280;1921;49.368;11.068;2023-04-19T04:09:36;98121.91;;;7.47;98.43
3812;BME280;1921;49.368;11.068;2023-04-19T04:12:02;98141.13;;;7.54;99.12
3812;BME280;1921;49.368;11.068;2023-04-19T04:14:27;98166.88;;;7.38;100.00
3812;BME280;1921;49.368;11.068;2023-04-19T04:16:53;98168.53;;;7.39;100.00
3812;BME280;1921;49.368;11.068;2023-04-19T04:19:19;98159.16;;;7.19;100.00
3812;BME280;1921;49.368;11.068;2023-04-19T04:21:46;98150.06;;;7.15;100.00
3812;BME280;1921;49.368;11.068;2023-04-19T04:24:13;98133.72;;;6.95;100.00
3812;BME280;1921;49.368;11.068;2023-04-19T04:26:39;98135.97;;;7.17;100.00
3812;BME280;1921;49.368;11.068;2023-04-19T04:29:05;98148.06;;;7.26;100.00
3812;BME280;1921;49.368;11.068;2023-04-19T04:31:31;98149.97;;;7.34;100.00
3812;BME280;1921;49.368;11.068;2023-04-19T04:33:56;98146.44;;;7.25;100.00
3812;BME280;1921;49.368;11.068;2023-04-19T04:36:23;98151.34;;;7.28;100.00
3812;BME280;1921;49.368;11.068;2023-04-19T04:38:50;98143.53;;;7.01;100.00
3812;BME280;1921;49.368;11.068;2023-04-19T04:41:16;98194.06;;;7.34;100.00
3812;BME280;1921;49.368;11.068;2023-04-19T04:43:41;98167.09;;;7.17;100.00
3812;BME280;1921;49.368;11.068;2023-04-19T04:46:08;98182.34;;;7.20;100.00
3812;BME280;1921;49.368;11.068;2023-04-19T04:48:34;98136.84;;;6.98;100.00
3812;BME280;1921;49.368;11.068;2023-04-19T04:50:59;98148.84;;;7.09;100.00
3812;BME280;1921;49.368;11.068;2023-04-19T04:53:28;98138.97;;;7.22;100.00
3812;BME280;1921;49.368;11.068;2023-04-19T04:55:53;98036.50;;;6.81;100.00
3812;BME280;1921;49.368;11.068;2023-04-19T04:58:19;98048.78;;;7.07;100.00
3812;BME280;1921;49.368;11.068;2023-04-19T05:00:45;98137.56;;;7.83;98.61
3812;BME280;1921;49.368;11.068;2023-04-19T05:03:11;98147.19;;;7.91;97.91
3812;BME280;1921;49.368;11.068;2023-04-19T05:05:37;98155.81;;;7.91;98.50
3812;BME280;1921;49.368;11.068;2023-04-19T05:08:03;98126.09;;;7.76;97.96
3812;BME280;1921;49.368;11.068;2023-04-19T05:10:29;98122.03;;;7.73;98.33
3812;BME280;1921;49.368;11.068;2023-04-19T05:12:54;98120.56;;;7.71;98.31
3812;BME280;1921;49.368;11.068;2023-04-19T05:15:20;98132.13;;;7.76;99.05
3812;BME280;1921;49.368;11.068;2023-04-19T05:17:46;98118.81;;;7.62;99.54
3812;BME280;1921;49.368;11.068;2023-04-19T05:20:12;98109.22;;;7.44;100.00
3812;BME280;1921;49.368;11.068;2023-04-19T05:22:38;98132.56;;;7.72;100.00
3812;BME280;1921;49.368;11.068;2023-04-19T05:25:05;98142.59;;;7.85;100.00
3812;BME280;1921;49.368;11.068;2023-04-19T05:27:31;98098.13;;;7.70;99.45
3812;BME280;1921;49.368;11.068;2023-04-19T05:29:57;98148.91;;;8.00;100.00
3812;BME280;1921;49.368;11.068;2023-04-19T05:32:23;98098.44;;;7.85;99.24
3812;BME280;1921;49.368;11.068;2023-04-19T05:34:48;98097.53;;;7.76;100.00
3812;BME280;1921;49.368;11.068;2023-04-19T05:37:14;98104.09;;;7.98;99.21
3812;BME280;1921;49.368;11.068;2023-04-19T05:39:40;98091.53;;;8.11;98.22
3812;BME280;1921;49.368;11.068;2023-04-19T05:42:05;98147.91;;;8.46;97.57
3812;BME280;1921;49.368;11.068;2023-04-19T05:44:31;98133.94;;;8.73;96.15
3812;BME280;1921;49.368;11.068;2023-04-19T05:46:57;98090.69;;;8.64;95.18
3812;BME280;1921;49.368;11.068;2023-04-19T05:49:23;98123.41;;;9.01;93.57
3812;BME280;1921;49.368;11.068;2023-04-19T05:51:49;98116.91;;;9.05;94.35
3812;BME280;1921;49.368;11.068;2023-04-19T05:54:14;98068.75;;;8.67;93.90
3812;BME280;1921;49.368;11.068;2023-04-19T05:56:41;98089.44;;;9.02;92.11
3812;BME280;1921;49.368;11.068;2023-04-19T05:59:06;98112.75;;;9.20;92.60
3812;BME280;1921;49.368;11.068;2023-04-19T06:01:33;98135.16;;;9.47;92.03
3812;BME280;1921;49.368;11.068;2023-04-19T06:03:59;98141.59;;;9.69;92.29
3812;BME280;1921;49.368;11.068;2023-04-19T06:06:25;98121.03;;;9.58;91.20
3812;BME280;1921;49.368;11.068;2023-04-19T06:08:51;98105.53;;;9.40;91.44
3812;BME280;1921;49.368;11.068;2023-04-19T06:11:20;98126.25;;;9.58;91.57
3812;BME280;1921;49.368;11.068;2023-04-19T06:13:47;98126.72;;;9.61;91.11
3812;BME280;1921;49.368;11.068;2023-04-19T06:16:13;98108.94;;;9.40;90.82
3812;BME280;1921;49.368;11.068;2023-04-19T06:18:39;98088.75;;;9.42;90.88
3812;BME280;1921;49.368;11.068;2023-04-19T06:21:05;98134.28;;;9.81;89.75
3812;BME280;1921;49.368;11.068;2023-04-19T06:23:31;98111.31;;;9.76;89.16
3812;BME280;1921;49.368;11.068;2023-04-19T06:25:57;98110.19;;;9.28;92.39
3812;BME280;1921;49.368;11.068;2023-04-19T06:28:23;98114.47;;;9.03;94.00
3812;BME280;1921;49.368;11.068;2023-04-19T06:30:48;98097.34;;;9.27;93.34
3812;BME280;1921;49.368;11.068;2023-04-19T06:33:14;98078.59;;;9.15;93.17
3812;BME280;1921;49.368;11.068;2023-04-19T06:35:40;98066.69;;;9.12;93.32
3812;BME280;1921;49.368;11.068;2023-04-19T06:38:06;98140.63;;;9.86;93.01
3812;BME280;1921;49.368;11.068;2023-04-19T06:40:35;98074.88;;;9.76;90.00
3812;BME280;1921;49.368;11.068;2023-04-19T06:43:00;98103.81;;;9.65;90.42
3812;BME280;1921;49.368;11.068;2023-04-19T06:45:26;98108.50;;;9.53;91.58
3812;BME280;1921;49.368;11.068;2023-04-19T06:47:52;98088.00;;;9.58;90.85
3812;BME280;1921;49.368;11.068;2023-04-19T06:50:18;98095.81;;;9.66;90.99
3812;BME280;1921;49.368;11.068;2023-04-19T06:52:44;98075.78;;;9.51;91.22
3812;BME280;1921;49.368;11.068;2023-04-19T06:55:09;98080.47;;;9.47;92.32
3812;BME280;1921;49.368;11.068;2023-04-19T06:57:36;98111.56;;;9.49;94.44
3812;BME280;1921;49.368;11.068;2023-04-19T07:00:03;98104.16;;;9.86;92.48
3812;BME280;1921;49.368;11.068;2023-04-19T07:02:31;98101.50;;;9.62;92.80
3812;BME280;1921;49.368;11.068;2023-04-19T07:04:57;98044.72;;;9.57;91.76
3812;BME280;1921;49.368;11.068;2023-04-19T07:07:22;98072.38;;;9.66;92.19
3812;BME280;1921;49.368;11.068;2023-04-19T07:09:48;98087.56;;;9.79;92.17
3812;BME280;1921;49.368;11.068;2023-04-19T07:12:14;98075.59;;;9.44;94.39
3812;BME280;1921;49.368;11.068;2023-04-19T07:14:40;98095.28;;;9.47;95.41
3812;BME280;1921;49.368;11.068;2023-04-19T07:17:05;98043.25;;;9.04;95.89
3812;BME280;1921;49.368;11.068;2023-04-19T07:19:31;98070.88;;;9.05;97.87
3812;BME280;1921;49.368;11.068;2023-04-19T07:21:57;98074.34;;;9.64;94.38
3812;BME280;1921;49.368;11.068;2023-04-19T07:24:23;98088.53;;;9.78;93.52
3812;BME280;1921;49.368;11.068;2023-04-19T07:26:50;98074.94;;;9.42;95.91
3812;BME280;1921;49.368;11.068;2023-04-19T07:29:16;98053.19;;;9.67;93.39
3812;BME280;1921;49.368;11.068;2023-04-19T07:31:43;98089.50;;;9.69;95.16
3812;BME280;1921;49.368;11.068;2023-04-19T07:34:09;98073.84;;;9.61;95.37
3812;BME280;1921;49.368;11.068;2023-04-19T07:36:35;98041.06;;;9.26;96.68
3812;BME280;1921;49.368;11.068;2023-04-19T07:39:02;98049.75;;;9.51;96.63
3812;BME280;1921;49.368;11.068;2023-04-19T07:41:30;98012.19;;;9.86;93.13
3812;BME280;1921;49.368;11.068;2023-04-19T07:43:56;98036.63;;;10.34;90.97
3812;BME280;1921;49.368;11.068;2023-04-19T07:46:22;98068.31;;;10.78;89.34
3812;BME280;1921;49.368;11.068;2023-04-19T07:48:48;98044.22;;;10.68;87.42
3812;BME280;1921;49.368;11.068;2023-04-19T07:51:15;98062.84;;;10.48;90.06
3812;BME280;1921;49.368;11.068;2023-04-19T07:53:42;98069.34;;;10.12;92.76
3812;BME280;1921;49.368;11.068;2023-04-19T07:56:10;98074.91;;;10.33;91.25
3812;BME280;1921;49.368;11.068;2023-04-19T07:58:36;98068.38;;;10.05;92.58
3812;BME280;1921;49.368;11.068;2023-04-19T08:01:03;98059.91;;;10.03;93.49
3812;BME280;1921;49.368;11.068;2023-04-19T08:03:30;98022.44;;;9.95;92.83
3812;BME280;1921;49.368;11.068;2023-04-19T08:05:56;98077.72;;;9.49;98.45
3812;BME280;1921;49.368;11.068;2023-04-19T08:08:22;98061.50;;;9.63;97.14
3812;BME280;1921;49.368;11.068;2023-04-19T08:10:49;98040.97;;;9.68;96.56
3812;BME280;1921;49.368;11.068;2023-04-19T08:13:15;98028.31;;;9.89;93.85
3812;BME280;1921;49.368;11.068;2023-04-19T08:15:41;98021.16;;;9.83;94.36
3812;BME280;1921;49.368;11.068;2023-04-19T08:18:07;98064.16;;;10.36;92.14
3812;BME280;1921;49.368;11.068;2023-04-19T08:20:32;98057.00;;;10.38;91.95
3812;BME280;1921;49.368;11.068;2023-04-19T08:22:59;98002.22;;;9.49;96.02
3812;BME280;1921;49.368;11.068;2023-04-19T08:25:25;98054.38;;;9.89;94.56
3812;BME280;1921;49.368;11.068;2023-04-19T08:27:53;98047.97;;;9.51;97.10
3812;BME280;1921;49.368;11.068;2023-04-19T08:30:20;98038.38;;;9.01;99.10
3812;BME280;1921;49.368;11.068;2023-04-19T08:32:46;98014.78;;;9.03;98.89
3812;BME280;1921;49.368;11.068;2023-04-19T08:35:13;98004.41;;;9.03;98.93
3812;BME280;1921;49.368;11.068;2023-04-19T08:37:38;98078.63;;;9.31;99.37
3812;BME280;1921;49.368;11.068;2023-04-19T08:40:05;98003.16;;;8.81;100.00
3812;BME280;1921;49.368;11.068;2023-04-19T08:42:31;98014.69;;;8.78;100.00
3812;BME280;1921;49.368;11.068;2023-04-19T08:45:00;98030.78;;;8.82;100.00
3812;BME280;1921;49.368;11.068;2023-04-19T08:47:34;98035.59;;;8.95;100.00
3812;BME280;1921;49.368;11.068;2023-04-19T08:50:05;97972.16;;;8.27;100.00
3812;BME280;1921;49.368;11.068;2023-04-19T08:52:36;97985.94;;;8.46;100.00
3812;BME280;1921;49.368;11.068;2023-04-19T08:55:07;98050.50;;;8.58;100.00
3812;BME280;1921;49.368;11.068;2023-04-19T08:57:34;98026.50;;;8.39;100.00
3812;BME280;1921;49.368;11.068;2023-04-19T09:00:02;98025.75;;;8.28;100.00
3812;BME280;1921;49.368;11.068;2023-04-19T09:02:52;98030.25;;;8.00;100.00
3812;BME280;1921;49.368;11.068;2023-04-19T09:05:20;98037.16;;;8.09;100.00
3812;BME280;1921;49.368;11.068;2023-04-19T09:07:46;98065.78;;;8.35;100.00
3812;BME280;1921;49.368;11.068;2023-04-19T09:10:20;98033.22;;;7.88;100.00
3812;BME280;1921;49.368;11.068;2023-04-19T09:13:04;98010.34;;;7.65;100.00
3812;BME280;1921;49.368;11.068;2023-04-19T09:15:37;97919.84;;;6.81;100.00
3812;BME280;1921;49.368;11.068;2023-04-19T09:18:09;98048.81;;;7.52;100.00
3812;BME280;1921;49.368;11.068;2023-04-19T09:20:37;98011.44;;;7.27;100.00
3812;BME280;1921;49.368;11.068;2023-04-19T09:23:05;98089.63;;;7.77;100.00
3812;BME280;1921;49.368;11.068;2023-04-19T09:25:31;98062.84;;;7.77;100.00
3812;BME280;1921;49.368;11.068;2023-04-19T09:28:11;98073.38;;;7.75;100.00
3812;BME280;1921;49.368;11.068;2023-04-19T09:30:38;98068.25;;;7.83;100.00
3812;BME280;1921;49.368;11.068;2023-04-19T09:33:04;98010.38;;;7.38;100.00
3812;BME280;1921;49.368;11.068;2023-04-19T09:35:46;98070.63;;;7.77;100.00
3812;BME280;1921;49.368;11.068;2023-04-19T09:38:14;97987.41;;;7.25;100.00
3812;BME280;1921;49.368;11.068;2023-04-19T09:40:41;98023.38;;;7.55;100.00
3812;BME280;1921;49.368;11.068;2023-04-19T09:43:07;98011.38;;;7.54;100.00
3812;BME280;1921;49.368;11.068;2023-04-19T09:45:44;97997.41;;;7.55;100.00
3812;BME280;1921;49.368;11.068;2023-04-19T09:48:12;98029.00;;;7.69;100.00
3812;BME280;1921;49.368;11.068;2023-04-19T09:53:18;98009.84;;;7.16;100.00
3812;BME280;1921;49.368;11.068;2023-04-19T09:55:45;97995.44;;;7.04;100.00
3812;BME280;1921;49.368;11.068;2023-04-19T09:58:15;98016.59;;;7.09;100.00
3812;BME280;1921;49.368;11.068;2023-04-19T10:00:44;98015.53;;;7.20;100.00
3812;BME280;1921;49.368;11.068;2023-04-19T10:03:15;98000.69;;;7.40;100.00
3812;BME280;1921;49.368;11.068;2023-04-19T10:05:43;97986.53;;;7.34;100.00
3812;BME280;1921;49.368;11.068;2023-04-19T10:08:11;98004.47;;;7.63;100.00
3812;BME280;1921;49.368;11.068;2023-04-19T10:10:39;97991.25;;;7.56;97.64
3812;BME280;1921;49.368;11.068;2023-04-19T10:13:11;98021.66;;;8.00;98.24
3812;BME280;1921;49.368;11.068;2023-04-19T10:15:38;97995.38;;;8.03;96.78
3812;BME280;1921;49.368;11.068;2023-04-19T10:18:07;97995.38;;;8.03;96.46
3812;BME280;1921;49.368;11.068;2023-04-19T10:20:59;98046.53;;;8.46;94.97
3812;BME280;1921;49.368;11.068;2023-04-19T10:23:27;98009.19;;;8.29;95.50
3812;BME280;1921;49.368;11.068;2023-04-19T10:25:57;97984.22;;;8.10;93.35
3812;BME280;1921;49.368;11.068;2023-04-19T10:28:24;98006.41;;;8.23;92.95
3812;BME280;1921;49.368;11.068;2023-04-19T10:31:00;98014.19;;;8.41;92.17
3812;BME280;1921;49.368;11.068;2023-04-19T10:33:35;97986.53;;;8.14;92.28
3812;BME280;1921;49.368;11.068;2023-04-19T10:36:01;97984.16;;;8.46;87.42
3812;BME280;1921;49.368;11.068;2023-04-19T10:41:04;97938.84;;;7.97;90.36
3812;BME280;1921;49.368;11.068;2023-04-19T10:43:37;97958.91;;;8.65;86.05
3812;BME280;1921;49.368;11.068;2023-04-19T10:48:52;98007.41;;;9.40;87.70
3812;BME280;1921;49.368;11.068;2023-04-19T10:51:21;97959.94;;;9.79;78.77
3812;BME280;1921;49.368;11.068;2023-04-19T10:53:52;97995.25;;;11.25;74.15
3812;BME280;1921;49.368;11.068;2023-04-19T11:01:41;97998.81;;;10.21;77.19
3812;BME280;1921;49.368;11.068;2023-04-19T11:09:34;97970.50;;;10.74;70.31
3812;BME280;1921;49.368;11.068;2023-04-19T11:14:40;97968.69;;;10.83;67.97
3812;BME280;1921;49.368;11.068;2023-04-19T11:20:04;97947.75;;;10.60;67.52
3812;BME280;1921;49.368;11.068;2023-04-19T11:22:38;97963.94;;;10.86;67.91
3812;BME280;1921;49.368;11.068;2023-04-19T11:25:12;97958.59;;;10.79;65.47
3812;BME280;1921;49.368;11.068;2023-04-19T11:27:40;97901.88;;;10.73;63.97
3812;BME280;1921;49.368;11.068;2023-04-19T11:30:18;97894.44;;;12.00;58.52
3812;BME280;1921;49.368;11.068;2023-04-19T11:32:53;97915.97;;;11.41;59.14
3812;BME280;1921;49.368;11.068;2023-04-19T11:35:22;97905.63;;;11.02;60.62
3812;BME280;1921;49.368;11.068;2023-04-19T11:37:49;97886.13;;;11.81;56.76
3812;BME280;1921;49.368;11.068;2023-04-19T11:40:16;97942.66;;;11.51;57.34
3812;BME280;1921;49.368;11.068;2023-04-19T11:42:43;97937.25;;;12.87;57.57
3812;BME280;1921;49.368;11.068;2023-04-19T11:45:10;97907.31;;;13.33;50.85
3812;BME280;1921;49.368;11.068;2023-04-19T11:47:47;97905.94;;;11.91;55.00
3812;BME280;1921;49.368;11.068;2023-04-19T11:50:38;97904.69;;;11.64;53.87
3812;BME280;1921;49.368;11.068;2023-04-19T11:53:20;97886.75;;;11.60;53.10
3812;BME280;1921;49.368;11.068;2023-04-19T11:55:55;97833.66;;;11.30;53.59
3812;BME280;1921;49.368;11.068;2023-04-19T11:58:35;97911.56;;;11.19;55.94
3812;BME280;1921;49.368;11.068;2023-04-19T12:01:18;97865.16;;;11.06;53.90
3812;BME280;1921;49.368;11.068;2023-04-19T12:03:52;97878.94;;;10.92;52.97
3812;BME280;1921;49.368;11.068;2023-04-19T12:06:27;97919.97;;;11.29;53.68
3812;BME280;1921;49.368;11.068;2023-04-19T12:08:54;97865.56;;;10.95;53.61
3812;BME280;1921;49.368;11.068;2023-04-19T12:11:28;97890.09;;;11.09;52.36
3812;BME280;1921;49.368;11.068;2023-04-19T12:14:15;97872.56;;;11.78;50.98
3812;BME280;1921;49.368;11.068;2023-04-19T12:16:41;97867.41;;;11.70;50.67
3812;BME280;1921;49.368;11.068;2023-04-19T12:21:42;97851.44;;;11.12;53.53
3812;BME280;1921;49.368;11.068;2023-04-19T12:24:09;97828.47;;;11.45;51.70
3812;BME280;1921;49.368;11.068;2023-04-19T12:26:35;97835.22;;;12.07;49.78
3812;BME280;1921;49.368;11.068;2023-04-19T12:29:02;97836.56;;;11.88;50.15
3812;BME280;1921;49.368;11.068;2023-04-19T12:31:30;97864.66;;;11.48;51.38
3812;BME280;1921;49.368;11.068;2023-04-19T12:33:57;97861.66;;;11.74;51.46
3812;BME280;1921;49.368;11.068;2023-04-19T12:36:23;97862.44;;;11.60;49.29
3812;BME280;1921;49.368;11.068;2023-04-19T12:38:49;97824.72;;;11.63;44.74
3812;BME280;1921;49.368;11.068;2023-04-19T12:41:15;97846.66;;;11.53;45.95
3812;BME280;1921;49.368;11.068;2023-04-19T12:43:40;97830.31;;;12.33;45.73
3812;BME280;1921;49.368;11.068;2023-04-19T12:46:06;97834.53;;;12.49;42.99
3812;BME280;1921;49.368;11.068;2023-04-19T12:48:32;97868.31;;;13.94;41.13
3812;BME280;1921;49.368;11.068;2023-04-19T12:50:58;97849.94;;;12.59;43.36
3812;BME280;1921;49.368;11.068;2023-04-19T12:53:24;97821.22;;;12.15;43.44
3812;BME280;1921;49.368;11.068;2023-04-19T12:55:50;97805.63;;;11.77;44.57
3812;BME280;1921;49.368;11.068;2023-04-19T12:58:16;97821.16;;;12.08;42.72
3812;BME280;1921;49.368;11.068;2023-04-19T13:00:43;97842.31;;;12.28;43.99
3812;BME280;1921;49.368;11.068;2023-04-19T13:03:09;97796.03;;;12.43;39.94
3812;BME280;1921;49.368;11.068;2023-04-19T13:05:37;97799.78;;;11.75;39.05
3812;BME280;1921;49.368;11.068;2023-04-19T13:08:03;97848.81;;;11.88;38.92
3812;BME280;1921;49.368;11.068;2023-04-19T13:10:28;97856.81;;;11.86;39.67
3812;BME280;1921;49.368;11.068;2023-04-19T13:12:54;97808.84;;;11.79;38.41
3812;BME280;1921;49.368;11.068;2023-04-19T13:15:23;97812.50;;;12.07;38.39
3812;BME280;1921;49.368;11.068;2023-04-19T13:17:49;97814.19;;;11.85;38.24
3812;BME280;1921;49.368;11.068;2023-04-19T13:20:14;97816.97;;;12.28;37.09
3812;BME280;1921;49.368;11.068;2023-04-19T13:22:40;97778.88;;;12.55;37.65
3812;BME280;1921;49.368;11.068;2023-04-19T13:25:06;97834.44;;;13.64;35.17
3812;BME280;1921;49.368;11.068;2023-04-19T13:27:32;97814.09;;;11.79;35.75
3812;BME280;1921;49.368;11.068;2023-04-19T13:29:58;97804.41;;;11.88;36.11
3812;BME280;1921;49.368;11.068;2023-04-19T13:32:24;97832.06;;;11.97;35.79
3812;BME280;1921;49.368;11.068;2023-04-19T13:34:50;97830.91;;;12.86;34.68
3812;BME280;1921;49.368;11.068;2023-04-19T13:37:16;97788.25;;;12.13;34.60
3812;BME280;1921;49.368;11.068;2023-04-19T13:39:42;97789.97;;;12.06;35.34
3812;BME280;1921;49.368;11.068;2023-04-19T13:42:08;97824.63;;;11.71;35.19
3812;BME280;1921;49.368;11.068;2023-04-19T13:44:34;97841.13;;;11.33;36.49